sensor_id;sensor_type;location;lat;lon;timestamp;P1;durP1;ratioP1;P2;durP2;ratioP2
13590;SDS011;6866;50.778;7.206;2023-01-15T00:16:20;5.00;;;0.65;;
13590;SDS011;6866;50.778;7.206;2023-01-15T00:18:51;3.67;;;1.00;;
13590;SDS011;6866;50.778;7.206;2023-01-15T00:21:21;1.83;;;0.70;;
13590;SDS011;6866;50.778;7.206;2023-01-15T00:23:47;3.67;;;1.00;;
13590;SDS011;6866;50.778;7.206;2023-01-15T00:26:32;5.18;;;1.05;;
13590;SDS011;6866;50.778;7.206;2023-01-15T00:29:17;3.83;;;1.00;;
13590;SDS011;6866;50.778;7.206;2023-01-15T00:31:49;3.28;;;1.00;;
13590;SDS011;6866;50.778;7.206;2023-01-15T00:34:23;3.17;;;1.00;;
13590;SDS011;6866;50.778;7.206;2023-01-15T00:36:49;6.30;;;1.85;;
13590;SDS011;6866;50.778;7.206;2023-01-15T00:39:15;6.43;;;1.92;;
13590;SDS011;6866;50.778;7.206;2023-01-15T00:41:41;5.82;;;2.05;;
13590;SDS011;6866;50.778;7.206;2023-01-15T00:44:07;5.15;;;2.03;;
13590;SDS011;6866;50.778;7.206;2023-01-15T00:46:32;5.13;;;1.70;;
13590;SDS011;6866;50.778;7.206;2023-01-15T00:48:58;5.00;;;1.63;;
13590;SDS011;6866;50.778;7.206;2023-01-15T00:51:23;7.00;;;1.83;;
13590;SDS011;6866;50.778;7.206;2023-01-15T00:53:49;3.20;;;0.90;;
13590;SDS011;6866;50.778;7.206;2023-01-15T00:56:15;6.60;;;1.73;;
13590;SDS011;6866;50.778;7.206;2023-01-15T00:58:40;6.93;;;1.60;;
13590;SDS011;6866;50.778;7.206;2023-01-15T01:01:06;7.32;;;1.95;;
13590;SDS011;6866;50.778;7.206;2023-01-15T01:03:32;5.60;;;2.00;;
13590;SDS011;6866;50.778;7.206;2023-01-15T01:05:59;3.55;;;1.27;;
13590;SDS011;6866;50.778;7.206;2023-01-15T01:08:27;3.10;;;0.82;;
13590;SDS011;6866;50.778;7.206;2023-01-15T01:13:29;3.42;;;0.70;;
13590;SDS011;6866;50.778;7.206;2023-01-15T01:15:54;4.53;;;0.75;;
13590;SDS011;6866;50.778;7.206;2023-01-15T01:18:20;2.50;;;0.63;;
13590;SDS011;6866;50.778;7.206;2023-01-15T01:20:45;4.60;;;1.10;;
13590;SDS011;6866;50.778;7.206;2023-01-15T01:23:11;3.67;;;0.80;;
13590;SDS011;6866;50.778;7.206;2023-01-15T01:25:36;3.15;;;1.00;;
13590;SDS011;6866;50.778;7.206;2023-01-15T01:28:02;3.40;;;0.70;;
13590;SDS011;6866;50.778;7.206;2023-01-15T01:30:27;3.10;;;0.70;;
13590;SDS011;6866;50.778;7.206;2023-01-15T01:32:53;2.85;;;0.60;;
13590;SDS011;6866;50.778;7.206;2023-01-15T01:35:18;4.13;;;0.90;;
13590;SDS011;6866;50.778;7.206;2023-01-15T01:37:47;1.90;;;0.63;;
13590;SDS011;6866;50.778;7.206;2023-01-15T01:40:17;3.97;;;0.85;;
13590;SDS011;6866;50.778;7.206;2023-01-15T01:42:43;1.77;;;0.70;;
13590;SDS011;6866;50.778;7.206;2023-01-15T01:45:16;3.95;;;0.90;;
13590;SDS011;6866;50.778;7.206;2023-01-15T01:47:58;2.97;;;0.80;;
13590;SDS011;6866;50.778;7.206;2023-01-15T01:50:29;2.85;;;0.70;;
13590;SDS011;6866;50.778;7.206;2023-01-15T01:53:02;3.17;;;0.60;;
13590;SDS011;6866;50.778;7.206;2023-01-15T01:55:32;1.92;;;0.75;;
13590;SDS011;6866;50.778;7.206;2023-01-15T01:57:59;2.83;;;0.70;;
13590;SDS011;6866;50.778;7.206;2023-01-15T02:05:37;3.20;;;0.70;;
13590;SDS011;6866;50.778;7.206;2023-01-15T02:08:07;2.78;;;0.75;;
13590;SDS011;6866;50.778;7.206;2023-01-15T02:10:33;2.22;;;0.60;;
13590;SDS011;6866;50.778;7.206;2023-01-15T02:15:31;4.15;;;0.55;;
13590;SDS011;6866;50.778;7.206;2023-01-15T02:18:05;1.17;;;0.40;;
13590;SDS011;6866;50.778;7.206;2023-01-15T02:20:41;1.35;;;0.40;;
13590;SDS011;6866;50.778;7.206;2023-01-15T02:23:19;1.58;;;0.68;;
13590;SDS011;6866;50.778;7.206;2023-01-15T02:28:46;2.58;;;0.90;;
13590;SDS011;6866;50.778;7.206;2023-01-15T02:31:16;3.33;;;0.50;;
13590;SDS011;6866;50.778;7.206;2023-01-15T02:34:19;2.05;;;0.70;;
13590;SDS011;6866;50.778;7.206;2023-01-15T02:36:47;1.85;;;0.60;;
13590;SDS011;6866;50.778;7.206;2023-01-15T02:39:18;4.85;;;0.68;;
13590;SDS011;6866;50.778;7.206;2023-01-15T02:41:46;1.30;;;0.43;;
13590;SDS011;6866;50.778;7.206;2023-01-15T02:44:16;3.33;;;0.98;;
13590;SDS011;6866;50.778;7.206;2023-01-15T02:46:43;2.35;;;0.70;;
13590;SDS011;6866;50.778;7.206;2023-01-15T02:49:11;2.22;;;0.95;;
13590;SDS011;6866;50.778;7.206;2023-01-15T02:51:46;4.77;;;0.77;;
13590;SDS011;6866;50.778;7.206;2023-01-15T02:54:19;3.58;;;1.10;;
13590;SDS011;6866;50.778;7.206;2023-01-15T02:56:47;3.30;;;0.70;;
13590;SDS011;6866;50.778;7.206;2023-01-15T02:59:17;3.90;;;0.80;;
13590;SDS011;6866;50.778;7.206;2023-01-15T03:02:05;3.85;;;0.75;;
13590;SDS011;6866;50.778;7.206;2023-01-15T03:05:25;2.92;;;0.70;;
13590;SDS011;6866;50.778;7.206;2023-01-15T03:07:47;2.67;;;0.70;;
13590;SDS011;6866;50.778;7.206;2023-01-15T03:10:16;2.38;;;0.63;;
13590;SDS011;6866;50.778;7.206;2023-01-15T03:12:48;2.67;;;0.70;;
13590;SDS011;6866;50.778;7.206;2023-01-15T03:15:34;2.55;;;0.70;;
13590;SDS011;6866;50.778;7.206;2023-01-15T03:18:26;2.03;;;0.60;;
13590;SDS011;6866;50.778;7.206;2023-01-15T03:20:56;3.75;;;0.80;;
13590;SDS011;6866;50.778;7.206;2023-01-15T03:23:26;2.75;;;0.60;;
13590;SDS011;6866;50.778;7.206;2023-01-15T03:25:54;2.15;;;0.60;;
13590;SDS011;6866;50.778;7.206;2023-01-15T03:28:21;2.23;;;0.70;;
13590;SDS011;6866;50.778;7.206;2023-01-15T03:30:50;3.03;;;0.80;;
13590;SDS011;6866;50.778;7.206;2023-01-15T03:33:16;3.63;;;1.00;;
13590;SDS011;6866;50.778;7.206;2023-01-15T03:35:53;4.03;;;1.20;;
13590;SDS011;6866;50.778;7.206;2023-01-15T03:38:24;2.58;;;0.85;;
13590;SDS011;6866;50.778;7.206;2023-01-15T03:40:58;3.15;;;0.90;;
13590;SDS011;6866;50.778;7.206;2023-01-15T03:47:31;3.42;;;1.00;;
13590;SDS011;6866;50.778;7.206;2023-01-15T03:49:47;3.90;;;0.80;;
13590;SDS011;6866;50.778;7.206;2023-01-15T03:52:35;3.63;;;0.90;;
13590;SDS011;6866;50.778;7.206;2023-01-15T03:57:35;4.10;;;0.90;;
13590;SDS011;6866;50.778;7.206;2023-01-15T04:00:08;4.68;;;1.00;;
13590;SDS011;6866;50.778;7.206;2023-01-15T04:02:41;5.22;;;1.10;;
13590;SDS011;6866;50.778;7.206;2023-01-15T04:05:09;6.47;;;1.15;;
13590;SDS011;6866;50.778;7.206;2023-01-15T04:07:35;3.42;;;0.85;;
13590;SDS011;6866;50.778;7.206;2023-01-15T04:10:01;4.87;;;1.20;;
13590;SDS011;6866;50.778;7.206;2023-01-15T04:12:27;3.50;;;0.90;;
13590;SDS011;6866;50.778;7.206;2023-01-15T04:14:52;3.83;;;1.00;;
13590;SDS011;6866;50.778;7.206;2023-01-15T04:17:18;4.40;;;0.95;;
13590;SDS011;6866;50.778;7.206;2023-01-15T04:19:43;4.18;;;1.23;;
13590;SDS011;6866;50.778;7.206;2023-01-15T04:22:09;4.45;;;0.88;;
13590;SDS011;6866;50.778;7.206;2023-01-15T04:24:36;4.13;;;0.77;;
13590;SDS011;6866;50.778;7.206;2023-01-15T04:27:02;6.17;;;1.00;;
13590;SDS011;6866;50.778;7.206;2023-01-15T04:29:27;4.17;;;0.77;;
13590;SDS011;6866;50.778;7.206;2023-01-15T04:31:53;5.30;;;1.17;;
13590;SDS011;6866;50.778;7.206;2023-01-15T04:34:22;4.50;;;0.73;;
13590;SDS011;6866;50.778;7.206;2023-01-15T04:36:51;5.57;;;1.02;;
13590;SDS011;6866;50.778;7.206;2023-01-15T04:39:17;4.40;;;0.80;;
13590;SDS011;6866;50.778;7.206;2023-01-15T04:41:43;4.93;;;1.03;;
13590;SDS011;6866;50.778;7.206;2023-01-15T05:40:27;5.07;;;1.13;;
13590;SDS011;6866;50.778;7.206;2023-01-15T05:42:53;4.65;;;0.70;;
13590;SDS011;6866;50.778;7.206;2023-01-15T05:45:18;6.03;;;0.80;;
13590;SDS011;6866;50.778;7.206;2023-01-15T05:47:44;4.03;;;0.90;;
13590;SDS011;6866;50.778;7.206;2023-01-15T05:50:10;4.47;;;0.90;;
13590;SDS011;6866;50.778;7.206;2023-01-15T05:52:35;7.85;;;0.95;;
13590;SDS011;6866;50.778;7.206;2023-01-15T05:55:01;3.35;;;0.80;;
13590;SDS011;6866;50.778;7.206;2023-01-15T05:57:26;4.80;;;0.75;;
13590;SDS011;6866;50.778;7.206;2023-01-15T05:59:52;6.88;;;1.00;;
13590;SDS011;6866;50.778;7.206;2023-01-15T06:02:19;6.30;;;1.10;;
13590;SDS011;6866;50.778;7.206;2023-01-15T06:04:44;12.10;;;1.38;;
13590;SDS011;6866;50.778;7.206;2023-01-15T06:07:10;5.50;;;0.98;;
13590;SDS011;6866;50.778;7.206;2023-01-15T06:09:35;3.80;;;0.90;;
13590;SDS011;6866;50.778;7.206;2023-01-15T06:12:01;5.45;;;0.88;;
13590;SDS011;6866;50.778;7.206;2023-01-15T06:14:27;4.18;;;0.80;;
13590;SDS011;6866;50.778;7.206;2023-01-15T06:16:52;4.75;;;0.68;;
13590;SDS011;6866;50.778;7.206;2023-01-15T06:19:18;9.00;;;0.90;;
13590;SDS011;6866;50.778;7.206;2023-01-15T06:21:44;3.35;;;0.70;;
13590;SDS011;6866;50.778;7.206;2023-01-15T06:24:09;3.05;;;0.80;;
13590;SDS011;6866;50.778;7.206;2023-01-15T06:26:36;5.38;;;0.80;;
13590;SDS011;6866;50.778;7.206;2023-01-15T06:29:03;3.08;;;0.85;;
13590;SDS011;6866;50.778;7.206;2023-01-15T06:31:28;3.58;;;0.60;;
13590;SDS011;6866;50.778;7.206;2023-01-15T06:33:54;6.15;;;0.60;;
13590;SDS011;6866;50.778;7.206;2023-01-15T06:36:21;1.45;;;0.40;;
13590;SDS011;6866;50.778;7.206;2023-01-15T06:38:48;2.67;;;0.63;;
13590;SDS011;6866;50.778;7.206;2023-01-15T06:41:17;2.30;;;0.70;;
13590;SDS011;6866;50.778;7.206;2023-01-15T06:44:03;3.97;;;0.55;;
13590;SDS011;6866;50.778;7.206;2023-01-15T06:46:48;2.92;;;0.60;;
13590;SDS011;6866;50.778;7.206;2023-01-15T06:49:33;2.60;;;0.57;;
13590;SDS011;6866;50.778;7.206;2023-01-15T06:52:00;0.43;;;0.30;;
13590;SDS011;6866;50.778;7.206;2023-01-15T06:54:27;1.60;;;0.40;;
13590;SDS011;6866;50.778;7.206;2023-01-15T06:56:52;2.22;;;0.50;;
13590;SDS011;6866;50.778;7.206;2023-01-15T06:59:18;1.25;;;0.40;;
13590;SDS011;6866;50.778;7.206;2023-01-15T07:01:44;1.20;;;0.60;;
13590;SDS011;6866;50.778;7.206;2023-01-15T07:04:10;3.20;;;0.50;;
13590;SDS011;6866;50.778;7.206;2023-01-15T07:06:36;1.00;;;0.47;;
13590;SDS011;6866;50.778;7.206;2023-01-15T07:09:02;1.42;;;0.50;;
13590;SDS011;6866;50.778;7.206;2023-01-15T07:11:28;1.35;;;0.40;;
13590;SDS011;6866;50.778;7.206;2023-01-15T07:13:53;1.23;;;0.60;;
13590;SDS011;6866;50.778;7.206;2023-01-15T07:16:35;0.88;;;0.40;;
13590;SDS011;6866;50.778;7.206;2023-01-15T07:19:02;2.42;;;0.90;;
13590;SDS011;6866;50.778;7.206;2023-01-15T07:21:28;2.17;;;0.70;;
13590;SDS011;6866;50.778;7.206;2023-01-15T07:23:57;1.10;;;0.50;;
13590;SDS011;6866;50.778;7.206;2023-01-15T07:26:23;2.28;;;0.50;;
13590;SDS011;6866;50.778;7.206;2023-01-15T07:28:48;2.15;;;0.60;;
13590;SDS011;6866;50.778;7.206;2023-01-15T07:31:14;3.15;;;1.00;;
13590;SDS011;6866;50.778;7.206;2023-01-15T07:33:40;2.63;;;0.80;;
13590;SDS011;6866;50.778;7.206;2023-01-15T07:36:05;2.53;;;0.60;;
13590;SDS011;6866;50.778;7.206;2023-01-15T07:38:31;1.40;;;0.47;;
13590;SDS011;6866;50.778;7.206;2023-01-15T07:40:57;0.80;;;0.30;;
13590;SDS011;6866;50.778;7.206;2023-01-15T07:43:42;1.35;;;0.35;;
13590;SDS011;6866;50.778;7.206;2023-01-15T07:46:27;0.85;;;0.40;;
13590;SDS011;6866;50.778;7.206;2023-01-15T07:49:11;1.20;;;0.47;;
13590;SDS011;6866;50.778;7.206;2023-01-15T07:51:56;1.42;;;0.50;;
13590;SDS011;6866;50.778;7.206;2023-01-15T07:54:21;2.85;;;0.50;;
13590;SDS011;6866;50.778;7.206;2023-01-15T07:56:47;1.25;;;0.50;;
13590;SDS011;6866;50.778;7.206;2023-01-15T07:59:14;1.20;;;0.40;;
13590;SDS011;6866;50.778;7.206;2023-01-15T08:01:39;2.50;;;0.45;;
13590;SDS011;6866;50.778;7.206;2023-01-15T08:04:05;2.35;;;0.70;;
13590;SDS011;6866;50.778;7.206;2023-01-15T08:06:30;1.38;;;0.47;;
13590;SDS011;6866;50.778;7.206;2023-01-15T08:08:56;1.70;;;0.40;;
13590;SDS011;6866;50.778;7.206;2023-01-15T08:11:22;1.23;;;0.32;;
13590;SDS011;6866;50.778;7.206;2023-01-15T08:14:07;1.60;;;0.40;;
13590;SDS011;6866;50.778;7.206;2023-01-15T08:16:53;1.30;;;0.50;;
13590;SDS011;6866;50.778;7.206;2023-01-15T08:19:18;0.60;;;0.40;;
13590;SDS011;6866;50.778;7.206;2023-01-15T08:21:44;1.45;;;0.45;;
13590;SDS011;6866;50.778;7.206;2023-01-15T08:24:10;0.82;;;0.40;;
13590;SDS011;6866;50.778;7.206;2023-01-15T08:26:35;2.60;;;0.47;;
13590;SDS011;6866;50.778;7.206;2023-01-15T08:29:01;2.03;;;0.70;;
13590;SDS011;6866;50.778;7.206;2023-01-15T08:31:26;5.63;;;0.70;;
13590;SDS011;6866;50.778;7.206;2023-01-15T08:33:52;2.80;;;0.70;;
13590;SDS011;6866;50.778;7.206;2023-01-15T08:36:17;4.32;;;0.95;;
13590;SDS011;6866;50.778;7.206;2023-01-15T08:38:43;3.45;;;0.77;;
13590;SDS011;6866;50.778;7.206;2023-01-15T08:41:09;3.00;;;0.80;;
13590;SDS011;6866;50.778;7.206;2023-01-15T08:43:34;2.33;;;0.80;;
13590;SDS011;6866;50.778;7.206;2023-01-15T08:46:00;2.88;;;0.80;;
13590;SDS011;6866;50.778;7.206;2023-01-15T08:48:28;2.42;;;0.55;;
13590;SDS011;6866;50.778;7.206;2023-01-15T08:50:54;2.72;;;0.70;;
13590;SDS011;6866;50.778;7.206;2023-01-15T08:53:20;2.88;;;0.70;;
13590;SDS011;6866;50.778;7.206;2023-01-15T08:55:48;3.65;;;0.80;;
13590;SDS011;6866;50.778;7.206;2023-01-15T08:58:14;5.35;;;0.75;;
13590;SDS011;6866;50.778;7.206;2023-01-15T09:00:40;4.07;;;0.70;;
13590;SDS011;6866;50.778;7.206;2023-01-15T09:03:06;2.53;;;0.70;;
13590;SDS011;6866;50.778;7.206;2023-01-15T09:05:31;3.95;;;0.90;;
13590;SDS011;6866;50.778;7.206;2023-01-15T09:07:57;5.82;;;0.90;;
13590;SDS011;6866;50.778;7.206;2023-01-15T09:10:22;5.68;;;1.27;;
13590;SDS011;6866;50.778;7.206;2023-01-15T09:12:48;3.65;;;0.90;;
13590;SDS011;6866;50.778;7.206;2023-01-15T09:15:14;3.42;;;1.10;;
13590;SDS011;6866;50.778;7.206;2023-01-15T09:17:40;5.13;;;1.00;;
13590;SDS011;6866;50.778;7.206;2023-01-15T09:20:07;4.85;;;1.20;;
13590;SDS011;6866;50.778;7.206;2023-01-15T09:22:34;5.90;;;1.38;;
13590;SDS011;6866;50.778;7.206;2023-01-15T09:24:59;4.88;;;1.17;;
13590;SDS011;6866;50.778;7.206;2023-01-15T09:27:26;5.32;;;1.17;;
13590;SDS011;6866;50.778;7.206;2023-01-15T09:29:52;5.40;;;1.13;;
13590;SDS011;6866;50.778;7.206;2023-01-15T09:32:18;7.25;;;1.35;;
13590;SDS011;6866;50.778;7.206;2023-01-15T09:34:44;6.70;;;1.30;;
13590;SDS011;6866;50.778;7.206;2023-01-15T09:37:09;4.93;;;1.20;;
13590;SDS011;6866;50.778;7.206;2023-01-15T09:39:38;5.78;;;1.10;;
13590;SDS011;6866;50.778;7.206;2023-01-15T09:53:44;9.40;;;1.80;;
13590;SDS011;6866;50.778;7.206;2023-01-15T09:56:33;6.20;;;1.80;;
13590;SDS011;6866;50.778;7.206;2023-01-15T09:59:04;3.83;;;1.15;;
13590;SDS011;6866;50.778;7.206;2023-01-15T10:01:39;7.00;;;1.42;;
13590;SDS011;6866;50.778;7.206;2023-01-15T11:20:01;5.43;;;1.10;;
13590;SDS011;6866;50.778;7.206;2023-01-15T11:22:39;6.00;;;1.40;;
13590;SDS011;6866;50.778;7.206;2023-01-15T11:25:05;8.73;;;1.20;;
13590;SDS011;6866;50.778;7.206;2023-01-15T11:27:33;8.00;;;1.30;;
13590;SDS011;6866;50.778;7.206;2023-01-15T11:30:00;5.53;;;1.23;;
13590;SDS011;6866;50.778;7.206;2023-01-15T11:32:31;6.45;;;1.30;;
13590;SDS011;6866;50.778;7.206;2023-01-15T11:39:59;10.00;;;2.17;;
13590;SDS011;6866;50.778;7.206;2023-01-15T11:45:16;5.30;;;1.17;;
13590;SDS011;6866;50.778;7.206;2023-01-15T11:48:08;5.47;;;1.00;;
13590;SDS011;6866;50.778;7.206;2023-01-15T11:51:03;8.18;;;1.48;;
13590;SDS011;6866;50.778;7.206;2023-01-15T11:53:53;7.40;;;1.10;;
13590;SDS011;6866;50.778;7.206;2023-01-15T11:56:24;5.15;;;1.10;;
13590;SDS011;6866;50.778;7.206;2023-01-15T11:58:53;8.13;;;1.40;;
13590;SDS011;6866;50.778;7.206;2023-01-15T12:01:22;5.82;;;1.65;;
13590;SDS011;6866;50.778;7.206;2023-01-15T12:03:52;4.50;;;1.10;;
13590;SDS011;6866;50.778;7.206;2023-01-15T12:06:19;7.15;;;1.10;;
13590;SDS011;6866;50.778;7.206;2023-01-15T12:11:49;5.75;;;1.23;;
13590;SDS011;6866;50.778;7.206;2023-01-15T12:14:40;7.95;;;1.40;;
13590;SDS011;6866;50.778;7.206;2023-01-15T12:20:02;4.28;;;1.15;;
13590;SDS011;6866;50.778;7.206;2023-01-15T12:25:48;4.88;;;1.27;;
13590;SDS011;6866;50.778;7.206;2023-01-15T12:30:59;7.07;;;1.65;;
13590;SDS011;6866;50.778;7.206;2023-01-15T12:38:58;8.50;;;1.50;;
13590;SDS011;6866;50.778;7.206;2023-01-15T12:41:29;5.47;;;1.73;;
13590;SDS011;6866;50.778;7.206;2023-01-15T12:44:18;8.65;;;1.63;;
13590;SDS011;6866;50.778;7.206;2023-01-15T12:47:13;7.03;;;1.20;;
13590;SDS011;6866;50.778;7.206;2023-01-15T12:49:46;7.00;;;1.45;;
13590;SDS011;6866;50.778;7.206;2023-01-15T12:52:18;5.15;;;1.65;;
13590;SDS011;6866;50.778;7.206;2023-01-15T12:54:54;8.75;;;1.50;;
13590;SDS011;6866;50.778;7.206;2023-01-15T12:57:34;10.38;;;1.58;;
13590;SDS011;6866;50.778;7.206;2023-01-15T13:00:20;10.30;;;1.63;;
13590;SDS011;6866;50.778;7.206;2023-01-15T13:03:09;9.60;;;1.33;;
13590;SDS011;6866;50.778;7.206;2023-01-15T13:05:52;6.03;;;1.48;;
13590;SDS011;6866;50.778;7.206;2023-01-15T13:08:34;11.07;;;1.30;;
13590;SDS011;6866;50.778;7.206;2023-01-15T13:11:20;8.02;;;1.38;;
13590;SDS011;6866;50.778;7.206;2023-01-15T13:13:45;5.85;;;1.02;;
13590;SDS011;6866;50.778;7.206;2023-01-15T13:19:29;8.07;;;1.35;;
13590;SDS011;6866;50.778;7.206;2023-01-15T13:22:14;7.28;;;1.45;;
13590;SDS011;6866;50.778;7.206;2023-01-15T13:24:54;8.30;;;1.65;;
13590;SDS011;6866;50.778;7.206;2023-01-15T13:27:54;10.75;;;2.20;;
13590;SDS011;6866;50.778;7.206;2023-01-15T13:33:23;6.53;;;1.65;;
13590;SDS011;6866;50.778;7.206;2023-01-15T13:39:10;7.53;;;1.65;;
13590;SDS011;6866;50.778;7.206;2023-01-15T17:40:23;5.82;;;1.27;;
13590;SDS011;6866;50.778;7.206;2023-01-15T17:42:49;6.13;;;1.55;;
13590;SDS011;6866;50.778;7.206;2023-01-15T17:45:27;6.00;;;1.20;;
13590;SDS011;6866;50.778;7.206;2023-01-15T17:47:54;4.30;;;1.13;;
13590;SDS011;6866;50.778;7.206;2023-01-15T17:50:20;5.55;;;1.20;;
13590;SDS011;6866;50.778;7.206;2023-01-15T17:52:46;9.73;;;1.30;;
13590;SDS011;6866;50.778;7.206;2023-01-15T17:55:13;5.28;;;1.10;;
13590;SDS011;6866;50.778;7.206;2023-01-15T17:57:59;7.30;;;1.30;;
13590;SDS011;6866;50.778;7.206;2023-01-15T18:00:43;4.60;;;1.30;;
13590;SDS011;6866;50.778;7.206;2023-01-15T18:03:29;5.05;;;1.40;;
13590;SDS011;6866;50.778;7.206;2023-01-15T18:06:14;4.75;;;1.23;;
13590;SDS011;6866;50.778;7.206;2023-01-15T18:08:42;4.15;;;1.33;;
13590;SDS011;6866;50.778;7.206;2023-01-15T18:11:10;4.00;;;1.30;;
13590;SDS011;6866;50.778;7.206;2023-01-15T18:13:36;6.32;;;1.35;;
13590;SDS011;6866;50.778;7.206;2023-01-15T18:16:05;4.90;;;1.15;;
13590;SDS011;6866;50.778;7.206;2023-01-15T18:18:31;5.90;;;1.35;;
13590;SDS011;6866;50.778;7.206;2023-01-15T18:20:58;4.25;;;1.35;;
13590;SDS011;6866;50.778;7.206;2023-01-15T18:23:24;4.20;;;1.40;;
13590;SDS011;6866;50.778;7.206;2023-01-15T18:25:50;5.65;;;1.40;;
13590;SDS011;6866;50.778;7.206;2023-01-15T18:28:16;5.35;;;1.20;;
13590;SDS011;6866;50.778;7.206;2023-01-15T18:30:41;4.43;;;1.10;;
13590;SDS011;6866;50.778;7.206;2023-01-15T18:33:07;7.70;;;1.48;;
13590;SDS011;6866;50.778;7.206;2023-01-15T18:35:32;5.63;;;1.52;;
13590;SDS011;6866;50.778;7.206;2023-01-15T18:37:58;6.45;;;1.58;;
13590;SDS011;6866;50.778;7.206;2023-01-15T18:40:23;8.52;;;1.80;;
13590;SDS011;6866;50.778;7.206;2023-01-15T18:42:57;4.13;;;1.80;;
13590;SDS011;6866;50.778;7.206;2023-01-15T18:45:45;6.15;;;1.83;;
13590;SDS011;6866;50.778;7.206;2023-01-15T18:48:31;5.97;;;1.63;;
13590;SDS011;6866;50.778;7.206;2023-01-15T18:50:57;9.95;;;3.17;;
13590;SDS011;6866;50.778;7.206;2023-01-15T18:53:24;12.68;;;4.03;;
13590;SDS011;6866;50.778;7.206;2023-01-15T18:55:49;7.65;;;2.00;;
13590;SDS011;6866;50.778;7.206;2023-01-15T18:58:15;7.15;;;2.13;;
13590;SDS011;6866;50.778;7.206;2023-01-15T19:00:41;4.88;;;1.50;;
13590;SDS011;6866;50.778;7.206;2023-01-15T19:03:06;8.45;;;2.15;;
13590;SDS011;6866;50.778;7.206;2023-01-15T19:05:32;5.07;;;2.40;;
13590;SDS011;6866;50.778;7.206;2023-01-15T19:07:59;5.43;;;1.48;;
13590;SDS011;6866;50.778;7.206;2023-01-15T19:10:24;8.93;;;2.00;;
13590;SDS011;6866;50.778;7.206;2023-01-15T19:12:50;4.45;;;1.50;;
13590;SDS011;6866;50.778;7.206;2023-01-15T19:15:16;7.20;;;2.20;;
13590;SDS011;6866;50.778;7.206;2023-01-15T19:18:02;6.57;;;1.83;;
13590;SDS011;6866;50.778;7.206;2023-01-15T19:20:47;6.03;;;1.50;;
13590;SDS011;6866;50.778;7.206;2023-01-15T19:23:12;7.53;;;2.33;;
13590;SDS011;6866;50.778;7.206;2023-01-15T19:25:39;8.80;;;2.60;;
13590;SDS011;6866;50.778;7.206;2023-01-15T19:28:10;13.07;;;2.90;;
13590;SDS011;6866;50.778;7.206;2023-01-15T19:30:39;8.80;;;2.25;;
13590;SDS011;6866;50.778;7.206;2023-01-15T19:33:07;7.93;;;2.30;;
13590;SDS011;6866;50.778;7.206;2023-01-15T19:35:34;7.18;;;2.15;;
13590;SDS011;6866;50.778;7.206;2023-01-15T20:06:20;6.03;;;1.80;;
13590;SDS011;6866;50.778;7.206;2023-01-15T20:08:46;5.03;;;1.38;;
13590;SDS011;6866;50.778;7.206;2023-01-15T20:11:11;5.18;;;1.70;;
13590;SDS011;6866;50.778;7.206;2023-01-15T20:13:37;5.53;;;1.60;;
13590;SDS011;6866;50.778;7.206;2023-01-15T20:16:16;6.97;;;1.48;;
13590;SDS011;6866;50.778;7.206;2023-01-15T20:18:43;4.70;;;1.30;;
13590;SDS011;6866;50.778;7.206;2023-01-15T20:21:11;7.28;;;1.77;;
13590;SDS011;6866;50.778;7.206;2023-01-15T20:23:38;10.45;;;2.15;;
13590;SDS011;6866;50.778;7.206;2023-01-15T20:26:05;4.90;;;1.48;;
13590;SDS011;6866;50.778;7.206;2023-01-15T20:28:34;6.75;;;1.55;;
13590;SDS011;6866;50.778;7.206;2023-01-15T20:31:01;6.70;;;1.38;;
13590;SDS011;6866;50.778;7.206;2023-01-15T20:33:27;10.65;;;1.60;;
13590;SDS011;6866;50.778;7.206;2023-01-15T20:35:52;6.90;;;1.48;;
13590;SDS011;6866;50.778;7.206;2023-01-15T20:38:19;7.85;;;1.45;;
13590;SDS011;6866;50.778;7.206;2023-01-15T20:40:46;6.05;;;1.80;;
13590;SDS011;6866;50.778;7.206;2023-01-15T20:43:13;8.00;;;1.20;;
13590;SDS011;6866;50.778;7.206;2023-01-15T20:46:10;8.07;;;1.42;;
13590;SDS011;6866;50.778;7.206;2023-01-15T20:48:38;7.60;;;1.60;;
13590;SDS011;6866;50.778;7.206;2023-01-15T20:51:22;6.95;;;1.48;;
13590;SDS011;6866;50.778;7.206;2023-01-15T20:53:47;5.55;;;1.50;;
13590;SDS011;6866;50.778;7.206;2023-01-15T20:56:15;6.55;;;1.50;;
13590;SDS011;6866;50.778;7.206;2023-01-15T20:58:41;8.93;;;1.60;;
13590;SDS011;6866;50.778;7.206;2023-01-15T21:01:07;6.15;;;1.48;;
13590;SDS011;6866;50.778;7.206;2023-01-15T21:03:34;9.48;;;2.33;;
13590;SDS011;6866;50.778;7.206;2023-01-15T21:06:01;8.40;;;1.63;;
13590;SDS011;6866;50.778;7.206;2023-01-15T21:08:28;8.88;;;2.35;;
13590;SDS011;6866;50.778;7.206;2023-01-15T21:10:54;6.28;;;1.40;;
13590;SDS011;6866;50.778;7.206;2023-01-15T21:13:20;7.50;;;1.45;;
13590;SDS011;6866;50.778;7.206;2023-01-15T21:16:20;5.28;;;1.40;;
13590;SDS011;6866;50.778;7.206;2023-01-15T21:18:39;7.25;;;1.23;;
13590;SDS011;6866;50.778;7.206;2023-01-15T21:21:25;4.93;;;1.10;;
13590;SDS011;6866;50.778;7.206;2023-01-15T21:23:51;6.93;;;1.90;;
13590;SDS011;6866;50.778;7.206;2023-01-15T21:26:16;4.75;;;1.70;;
13590;SDS011;6866;50.778;7.206;2023-01-15T21:28:42;6.22;;;1.40;;
13590;SDS011;6866;50.778;7.206;2023-01-15T21:31:09;6.90;;;1.65;;
13590;SDS011;6866;50.778;7.206;2023-01-15T21:33:35;6.00;;;1.63;;
13590;SDS011;6866;50.778;7.206;2023-01-15T22:08:00;4.50;;;1.23;;
13590;SDS011;6866;50.778;7.206;2023-01-15T22:10:28;6.03;;;1.27;;
13590;SDS011;6866;50.778;7.206;2023-01-15T22:12:54;5.35;;;1.38;;
13590;SDS011;6866;50.778;7.206;2023-01-15T22:15:21;6.75;;;1.40;;
13590;SDS011;6866;50.778;7.206;2023-01-15T22:17:50;6.32;;;1.30;;
13590;SDS011;6866;50.778;7.206;2023-01-15T22:20:17;8.38;;;1.40;;
